createdAt,value
2018-12-16T00:00:20.158Z,57.99
2018-12-16T00:02:52.819Z,57.62
2018-12-16T00:05:25.401Z,57.14
2018-12-16T00:07:58.131Z,57.91
2018-12-16T00:10:30.811Z,57.91
2018-12-16T00:13:03.433Z,58.25
2018-12-16T00:15:36.076Z,57.93
2018-12-16T00:18:08.779Z,57.75
2018-12-16T00:20:41.368Z,58.33
2018-12-16T00:23:13.995Z,57.70
2018-12-16T00:25:46.572Z,58.24
2018-12-16T00:28:19.285Z,58.41
2018-12-16T00:30:51.918Z,58.36
2018-12-16T00:33:24.522Z,58.70
2018-12-16T00:35:57.281Z,58.25
2018-12-16T00:38:29.905Z,58.44
2018-12-16T00:41:02.515Z,58.59
2018-12-16T00:43:35.150Z,58.40
2018-12-16T00:46:07.739Z,58.15
2018-12-16T00:48:40.444Z,57.87
2018-12-16T00:51:13.039Z,58.49
2018-12-16T00:53:45.697Z,58.87
2018-12-16T00:56:18.277Z,58.67
2018-12-16T00:58:50.904Z,57.94
2018-12-16T01:01:23.504Z,58.14
2018-12-16T01:03:56.165Z,58.23
2018-12-16T01:06:28.762Z,58.47
2018-12-16T01:09:01.392Z,58.18
2018-12-16T01:11:33.979Z,58.31
2018-12-16T01:14:06.606Z,58.29
2018-12-16T01:16:39.199Z,58.48
2018-12-16T01:19:11.948Z,58.33
2018-12-16T01:21:44.546Z,58.58
2018-12-16T01:24:18.364Z,58.65
2018-12-16T01:26:51.240Z,58.34
2018-12-16T01:29:23.950Z,58.24
2018-12-16T01:31:56.530Z,58.12
2018-12-16T01:34:29.249Z,58.19
2018-12-16T01:37:01.845Z,57.90
2018-12-16T01:39:34.478Z,57.54
2018-12-16T01:42:07.077Z,57.87
2018-12-16T01:44:39.709Z,57.97
2018-12-16T01:47:12.316Z,58.31
2018-12-16T01:49:44.923Z,58.43
2018-12-16T01:52:17.588Z,58.54
2018-12-16T01:54:50.291Z,58.17
2018-12-16T01:57:22.863Z,58.63
2018-12-16T01:59:55.493Z,59.24
2018-12-16T02:02:28.105Z,58.57
2018-12-16T02:05:00.749Z,58.71
2018-12-16T02:07:33.332Z,58.39
2018-12-16T02:10:06.159Z,58.01
2018-12-16T02:12:38.824Z,58.31
2018-12-16T02:15:11.592Z,58.34
2018-12-16T02:17:44.181Z,58.80
2018-12-16T02:20:16.751Z,59.58
2018-12-16T02:22:49.281Z,58.46
2018-12-16T02:25:21.960Z,58.75
2018-12-16T02:27:54.495Z,59.12
2018-12-16T02:30:29.166Z,58.74
2018-12-16T02:33:01.735Z,58.29
2018-12-16T02:35:34.326Z,58.49
2018-12-16T02:38:06.868Z,58.56
2018-12-16T02:40:39.434Z,58.75
2018-12-16T02:43:11.980Z,58.74
2018-12-16T02:45:44.578Z,58.66
2018-12-16T02:48:17.128Z,58.71
2018-12-16T02:50:49.815Z,58.66
2018-12-16T02:53:22.422Z,58.55
2018-12-16T02:55:54.979Z,58.54
2018-12-16T02:58:27.538Z,59.07
2018-12-16T03:01:00.176Z,59.82
2018-12-16T03:03:32.716Z,59.61
2018-12-16T03:06:05.274Z,59.13
2018-12-16T03:08:37.826Z,59.10
2018-12-16T03:11:10.378Z,59.11
2018-12-16T03:13:42.905Z,59.03
2018-12-16T03:16:15.495Z,58.98
2018-12-16T03:18:48.043Z,59.06
2018-12-16T03:21:20.609Z,58.86
2018-12-16T03:23:53.167Z,59.12
2018-12-16T03:26:25.743Z,59.10
2018-12-16T03:28:58.300Z,59.54
2018-12-16T03:31:30.927Z,59.25
2018-12-16T03:34:03.500Z,59.56
2018-12-16T03:36:36.093Z,59.75
2018-12-16T03:39:08.626Z,60.11
2018-12-16T03:41:41.195Z,61.14
2018-12-16T03:44:13.732Z,60.66
2018-12-16T03:46:46.325Z,60.79
2018-12-16T03:49:18.862Z,60.74
2018-12-16T03:51:51.520Z,61.11
2018-12-16T03:54:24.072Z,60.42
2018-12-16T03:56:56.634Z,60.64
2018-12-16T03:59:29.171Z,61.17
2018-12-16T04:02:01.726Z,60.96
2018-12-16T04:04:34.256Z,61.30
2018-12-16T04:07:06.848Z,60.59
2018-12-16T04:09:39.357Z,60.94
2018-12-16T04:12:12.098Z,60.51
2018-12-16T04:14:44.699Z,60.83
2018-12-16T04:17:17.498Z,60.29
2018-12-16T04:19:50.037Z,60.14
2018-12-16T04:22:22.623Z,60.29
2018-12-16T04:24:55.145Z,59.94
2018-12-16T04:27:27.782Z,60.21
2018-12-16T04:30:00.319Z,60.08
2018-12-16T04:32:32.907Z,60.11
2018-12-16T04:35:05.589Z,60.59
2018-12-16T04:37:38.157Z,60.26
2018-12-16T04:40:10.703Z,60.25
2018-12-16T04:42:43.395Z,60.21
2018-12-16T04:45:16.298Z,60.01
2018-12-16T04:47:48.944Z,59.59
2018-12-16T04:50:21.505Z,59.85
2018-12-16T04:52:54.059Z,59.62
2018-12-16T04:55:26.595Z,59.63
2018-12-16T04:57:59.218Z,59.58
2018-12-16T05:00:31.752Z,59.67
2018-12-16T05:03:04.319Z,59.72
2018-12-16T05:05:36.928Z,59.27
2018-12-16T05:08:09.741Z,59.98
2018-12-16T05:10:42.289Z,59.69
2018-12-16T05:13:14.975Z,59.62
2018-12-16T05:15:47.511Z,59.61
2018-12-16T05:18:20.162Z,59.32
2018-12-16T05:20:52.699Z,59.45
2018-12-16T05:23:25.281Z,59.54
2018-12-16T05:25:57.818Z,59.32
2018-12-16T05:28:30.486Z,59.64
2018-12-16T05:31:03.096Z,59.74
2018-12-16T05:33:35.665Z,59.67
2018-12-16T05:36:08.340Z,59.63
2018-12-16T05:38:40.985Z,60.01
2018-12-16T05:41:13.546Z,59.88
2018-12-16T05:43:46.147Z,60.38
2018-12-16T05:46:18.680Z,60.06
2018-12-16T05:48:51.660Z,59.66
2018-12-16T05:51:24.210Z,59.73
2018-12-16T05:53:56.845Z,59.90
2018-12-16T05:56:29.388Z,59.65
2018-12-16T05:59:02.033Z,59.58
2018-12-16T06:01:34.555Z,59.92
2018-12-16T06:04:07.135Z,60.06
2018-12-16T06:06:39.666Z,59.82
2018-12-16T06:09:12.229Z,59.90
2018-12-16T06:11:44.917Z,59.88
2018-12-16T06:14:17.597Z,59.63
2018-12-16T06:16:50.138Z,59.38
2018-12-16T06:19:22.720Z,59.54
2018-12-16T06:21:55.271Z,59.76
2018-12-16T06:24:27.837Z,59.42
2018-12-16T06:27:00.373Z,59.34
2018-12-16T06:29:32.965Z,59.12
2018-12-16T06:32:05.517Z,59.24
2018-12-16T06:34:38.081Z,59.04
2018-12-16T06:37:10.623Z,58.93
2018-12-16T06:39:43.203Z,58.97
2018-12-16T06:42:15.738Z,59.20
2018-12-16T06:44:48.309Z,58.88
2018-12-16T06:47:20.848Z,58.99
2018-12-16T06:49:53.440Z,58.92
2018-12-16T06:52:26.003Z,58.59
2018-12-16T06:54:58.681Z,58.97
2018-12-16T06:57:31.233Z,58.68
2018-12-16T07:00:05.361Z,59.02
2018-12-16T07:02:37.899Z,59.01
2018-12-16T07:05:10.475Z,58.80
2018-12-16T07:07:43.012Z,59.25
2018-12-16T07:10:15.970Z,59.29
2018-12-16T07:12:48.531Z,58.64
2018-12-16T07:15:21.111Z,58.79
2018-12-16T07:17:53.659Z,58.88
2018-12-16T07:20:26.231Z,58.64
2018-12-16T07:22:58.830Z,58.91
2018-12-16T07:25:31.401Z,58.76
2018-12-16T07:28:03.957Z,58.93
2018-12-16T07:30:36.557Z,59.01
2018-12-16T07:33:09.089Z,58.29
2018-12-16T07:35:41.730Z,58.88
2018-12-16T07:38:14.371Z,58.59
2018-12-16T07:40:47.032Z,58.57
2018-12-16T07:43:19.573Z,59.06
2018-12-16T07:45:52.258Z,59.28
2018-12-16T07:48:25.124Z,58.85
2018-12-16T07:50:57.738Z,58.05
2018-12-16T07:53:30.416Z,58.54
2018-12-16T07:56:03.959Z,58.57
2018-12-16T07:58:36.500Z,58.18
2018-12-16T08:01:09.076Z,58.12
2018-12-16T08:03:41.639Z,58.19
2018-12-16T08:06:14.256Z,59.01
2018-12-16T08:08:46.808Z,58.14
2018-12-16T08:11:19.506Z,58.24
2018-12-16T08:13:52.045Z,58.35
2018-12-16T08:16:24.597Z,57.87
2018-12-16T08:18:57.131Z,57.56
2018-12-16T08:21:29.793Z,57.84
2018-12-16T08:24:02.325Z,57.59
2018-12-16T08:26:34.898Z,57.70
2018-12-16T08:29:07.459Z,56.93
2018-12-16T08:31:40.110Z,57.25
2018-12-16T08:34:12.666Z,57.26
2018-12-16T08:36:45.286Z,56.67
2018-12-16T08:39:17.823Z,57.25
2018-12-16T08:41:50.403Z,57.08
2018-12-16T08:44:23.035Z,56.52
2018-12-16T08:46:55.591Z,55.36
2018-12-16T08:49:28.133Z,57.09
2018-12-16T08:52:00.771Z,56.70
2018-12-16T08:54:33.308Z,56.78
2018-12-16T08:57:05.865Z,56.10
2018-12-16T08:59:38.414Z,56.28
2018-12-16T09:02:11.036Z,55.99
2018-12-16T09:04:45.980Z,55.64
2018-12-16T09:07:18.574Z,55.69
2018-12-16T09:09:51.115Z,54.90
2018-12-16T09:12:23.704Z,55.48
2018-12-16T09:14:56.242Z,55.42
2018-12-16T09:17:28.831Z,55.23
2018-12-16T09:20:01.395Z,55.51
2018-12-16T09:22:34.030Z,55.12
2018-12-16T09:25:06.611Z,55.13
2018-12-16T09:27:39.176Z,54.71
2018-12-16T09:30:11.739Z,55.07
2018-12-16T09:32:44.332Z,54.92
2018-12-16T09:35:17.789Z,55.13
2018-12-16T09:37:50.617Z,54.43
2018-12-16T09:40:23.256Z,53.74
2018-12-16T09:42:56.941Z,54.24
2018-12-16T09:45:29.485Z,54.34
2018-12-16T09:48:02.304Z,53.92
2018-12-16T09:50:35.127Z,53.63
2018-12-16T09:53:07.716Z,53.85
2018-12-16T09:55:40.258Z,53.86
2018-12-16T09:58:12.908Z,53.85
2018-12-16T10:00:45.460Z,53.74
2018-12-16T10:03:18.289Z,53.26
2018-12-16T10:05:50.848Z,51.74
2018-12-16T10:08:23.529Z,53.17
2018-12-16T10:10:56.075Z,53.54
2018-12-16T10:13:28.735Z,52.89
2018-12-16T10:16:01.280Z,54.16
2018-12-16T10:18:33.850Z,53.50
2018-12-16T10:21:06.414Z,53.31
2018-12-16T10:23:38.980Z,53.44
2018-12-16T10:26:11.513Z,53.72
2018-12-16T10:28:44.072Z,53.53
2018-12-16T10:31:16.652Z,51.92
2018-12-16T10:33:49.689Z,52.70
2018-12-16T10:36:22.548Z,52.70
2018-12-16T10:38:55.891Z,51.94
2018-12-16T10:41:29.801Z,53.31
2018-12-16T10:44:02.995Z,52.54
2018-12-16T10:46:35.568Z,51.77
2018-12-16T10:49:08.200Z,52.18
2018-12-16T10:51:40.738Z,52.85
2018-12-16T10:54:13.336Z,52.46
2018-12-16T10:56:45.883Z,52.49
2018-12-16T10:59:18.542Z,52.16
2018-12-16T11:01:51.079Z,52.17
2018-12-16T11:04:23.667Z,52.00
2018-12-16T11:06:56.195Z,51.69
2018-12-16T11:09:28.879Z,52.08
2018-12-16T11:12:01.489Z,52.07
2018-12-16T11:14:34.064Z,51.68
2018-12-16T11:17:06.627Z,52.21
2018-12-16T11:19:39.184Z,52.32
2018-12-16T11:22:12.209Z,51.76
2018-12-16T11:24:44.781Z,51.97
2018-12-16T11:27:17.337Z,52.12
2018-12-16T11:29:49.981Z,52.38
2018-12-16T11:32:22.522Z,52.34
2018-12-16T11:34:55.147Z,51.92
2018-12-16T11:37:27.970Z,52.29
2018-12-16T11:40:00.658Z,52.36
2018-12-16T11:42:33.192Z,52.53
2018-12-16T11:45:06.513Z,52.59
2018-12-16T11:47:39.048Z,52.63
2018-12-16T11:50:11.628Z,52.38
2018-12-16T11:52:44.172Z,52.45
2018-12-16T11:55:16.765Z,51.92
2018-12-16T11:57:49.302Z,52.13
2018-12-16T12:00:21.860Z,52.15
2018-12-16T12:02:54.396Z,52.15
2018-12-16T12:05:26.976Z,52.23
2018-12-16T12:07:59.518Z,52.63
2018-12-16T12:10:32.098Z,52.71
2018-12-16T12:13:04.643Z,51.79
2018-12-16T12:15:37.235Z,51.82
2018-12-16T12:18:09.769Z,52.01
2018-12-16T12:20:42.371Z,51.74
2018-12-16T12:23:14.907Z,51.96
2018-12-16T12:25:47.472Z,51.90
2018-12-16T12:28:20.291Z,48.93
2018-12-16T12:30:52.920Z,51.91
2018-12-16T12:33:25.538Z,52.00
2018-12-16T12:35:58.199Z,51.91
2018-12-16T12:38:30.735Z,49.78
2018-12-16T12:41:03.317Z,52.16
2018-12-16T12:43:35.854Z,51.52
2018-12-16T12:46:08.504Z,51.82
2018-12-16T12:48:41.046Z,52.30
2018-12-16T12:51:13.618Z,51.91
2018-12-16T12:53:46.179Z,52.01
2018-12-16T12:56:18.848Z,52.16
2018-12-16T12:58:51.364Z,51.95
2018-12-16T13:01:23.959Z,52.17
2018-12-16T13:03:56.508Z,52.10
2018-12-16T13:06:29.081Z,51.86
2018-12-16T13:09:01.684Z,51.89
2018-12-16T13:11:34.259Z,51.64
2018-12-16T13:14:06.807Z,51.57
2018-12-16T13:16:39.536Z,50.98
2018-12-16T13:19:12.151Z,51.44
2018-12-16T13:21:44.757Z,51.64
2018-12-16T13:24:17.316Z,52.11
2018-12-16T13:26:49.978Z,51.75
2018-12-16T13:29:22.509Z,52.00
2018-12-16T13:31:55.168Z,51.94
2018-12-16T13:34:27.729Z,51.71
2018-12-16T13:37:00.293Z,52.03
2018-12-16T13:39:32.850Z,51.91
2018-12-16T13:42:05.546Z,51.59
2018-12-16T13:44:38.146Z,51.90
2018-12-16T13:47:10.831Z,51.95
2018-12-16T13:49:43.387Z,51.97
2018-12-16T13:52:15.957Z,52.20
2018-12-16T13:54:48.502Z,52.08
2018-12-16T13:57:21.068Z,52.39
2018-12-16T13:59:53.619Z,51.90
2018-12-16T14:02:26.247Z,52.31
2018-12-16T14:04:58.798Z,51.49
2018-12-16T14:07:31.337Z,51.69
2018-12-16T14:10:05.365Z,52.16
2018-12-16T14:12:38.043Z,51.77
2018-12-16T14:15:10.604Z,52.11
2018-12-16T14:17:43.177Z,51.88
2018-12-16T14:20:15.727Z,51.40
2018-12-16T14:22:48.444Z,51.90
2018-12-16T14:25:21.004Z,52.05
2018-12-16T14:27:53.644Z,52.05
2018-12-16T14:30:26.231Z,52.17
2018-12-16T14:32:59.024Z,51.84
2018-12-16T14:35:31.826Z,52.06
2018-12-16T14:38:04.950Z,52.03
2018-12-16T14:40:37.468Z,52.11
2018-12-16T14:43:10.021Z,52.04
2018-12-16T14:45:42.601Z,52.47
2018-12-16T14:48:16.939Z,52.41
2018-12-16T14:50:49.685Z,52.36
2018-12-16T14:53:22.262Z,52.42
2018-12-16T14:55:55.393Z,52.30
2018-12-16T14:58:28.256Z,52.76
2018-12-16T15:01:00.867Z,52.61
2018-12-16T15:03:33.543Z,52.48
2018-12-16T15:06:06.236Z,52.50
2018-12-16T15:08:38.844Z,52.76
2018-12-16T15:11:11.525Z,52.68
2018-12-16T15:13:44.227Z,52.58
2018-12-16T15:16:16.907Z,52.73
2018-12-16T15:18:49.635Z,52.82
2018-12-16T15:21:22.172Z,52.83
2018-12-16T15:23:55.044Z,52.93
2018-12-16T15:26:27.642Z,53.16
2018-12-16T15:29:00.272Z,53.09
2018-12-16T15:31:32.872Z,53.46
2018-12-16T15:34:05.629Z,53.59
2018-12-16T15:36:38.236Z,53.64
2018-12-16T15:39:10.931Z,53.54
2018-12-16T15:41:43.467Z,53.81
2018-12-16T15:44:16.204Z,53.84
2018-12-16T15:46:48.777Z,53.80
2018-12-16T15:49:21.511Z,53.59
2018-12-16T15:51:54.053Z,52.92
2018-12-16T15:54:26.699Z,52.99
2018-12-16T15:56:59.235Z,53.08
2018-12-16T15:59:31.867Z,52.96
2018-12-16T16:02:04.413Z,53.25
2018-12-16T16:04:36.979Z,52.95
2018-12-16T16:07:09.547Z,53.30
2018-12-16T16:09:42.215Z,53.29
2018-12-16T16:12:14.761Z,53.55
2018-12-16T16:14:47.344Z,53.38
2018-12-16T16:17:19.956Z,53.52
2018-12-16T16:19:52.574Z,53.77
2018-12-16T16:22:25.133Z,53.83
2018-12-16T16:24:57.835Z,54.02
2018-12-16T16:27:30.383Z,53.99
2018-12-16T16:30:04.028Z,53.53
2018-12-16T16:32:36.559Z,53.95
2018-12-16T16:35:10.770Z,54.31
2018-12-16T16:37:43.396Z,54.48
2018-12-16T16:40:16.393Z,54.57
2018-12-16T16:42:48.941Z,54.15
2018-12-16T16:45:21.512Z,54.16
2018-12-16T16:47:54.052Z,54.19
2018-12-16T16:50:26.701Z,54.51
2018-12-16T16:52:59.254Z,55.23
2018-12-16T16:55:31.978Z,54.52
2018-12-16T16:58:04.530Z,54.59
2018-12-16T17:00:37.147Z,54.70
2018-12-16T17:03:09.696Z,54.71
2018-12-16T17:05:42.272Z,54.79
2018-12-16T17:08:14.832Z,54.45
2018-12-16T17:10:47.441Z,54.39
2018-12-16T17:13:20.014Z,54.42
2018-12-16T17:15:53.344Z,54.28
2018-12-16T17:18:25.908Z,54.79
2018-12-16T17:20:58.774Z,54.68
2018-12-16T17:23:31.808Z,54.66
2018-12-16T17:26:04.698Z,54.61
2018-12-16T17:28:37.678Z,54.76
2018-12-16T17:31:10.676Z,55.27
2018-12-16T17:33:43.698Z,55.85
2018-12-16T17:36:16.487Z,56.26
2018-12-16T17:38:49.042Z,56.48
2018-12-16T17:41:21.705Z,56.61
2018-12-16T17:43:54.263Z,56.78
2018-12-16T17:46:26.933Z,57.07
2018-12-16T17:48:59.492Z,57.24
2018-12-16T17:51:32.073Z,57.47
2018-12-16T17:54:04.707Z,57.49
2018-12-16T17:56:37.428Z,57.59
2018-12-16T17:59:10.061Z,57.57
2018-12-16T18:01:42.984Z,57.74
2018-12-16T18:04:15.531Z,58.07
2018-12-16T18:06:48.781Z,58.21
2018-12-16T18:09:21.549Z,58.17
2018-12-16T18:11:54.132Z,58.30
2018-12-16T18:14:26.734Z,58.33
2018-12-16T18:17:00.446Z,58.45
2018-12-16T18:19:33.073Z,58.56
2018-12-16T18:22:05.642Z,58.53
2018-12-16T18:24:38.502Z,58.33
2018-12-16T18:27:11.764Z,58.33
2018-12-16T18:29:44.344Z,58.33
2018-12-16T18:32:17.019Z,58.56
2018-12-16T18:34:49.931Z,58.61
2018-12-16T18:37:22.773Z,58.18
2018-12-16T18:39:55.318Z,58.84
2018-12-16T18:42:27.979Z,58.68
2018-12-16T18:45:00.532Z,58.95
2018-12-16T18:47:33.310Z,58.75
2018-12-16T18:50:08.011Z,58.87
2018-12-16T18:52:40.617Z,58.73
2018-12-16T18:55:13.830Z,58.42
2018-12-16T18:57:46.440Z,58.71
2018-12-16T19:00:19.176Z,58.83
2018-12-16T19:02:51.929Z,58.75
2018-12-16T19:05:24.614Z,59.22
2018-12-16T19:07:57.559Z,59.00
2018-12-16T19:10:30.086Z,58.91
2018-12-16T19:13:02.668Z,58.87
2018-12-16T19:15:35.357Z,58.91
2018-12-16T19:18:07.937Z,58.78
2018-12-16T19:20:40.551Z,58.88
2018-12-16T19:23:13.212Z,59.10
2018-12-16T19:25:45.758Z,58.81
2018-12-16T19:28:18.435Z,59.21
2018-12-16T19:30:51.032Z,59.20
2018-12-16T19:33:23.664Z,59.00
2018-12-16T19:35:56.261Z,58.95
2018-12-16T19:38:28.871Z,59.09
2018-12-16T19:41:01.429Z,58.95
2018-12-16T19:43:34.091Z,59.02
2018-12-16T19:46:06.640Z,59.19
2018-12-16T19:48:39.207Z,59.33
2018-12-16T19:51:11.750Z,59.13
2018-12-16T19:53:44.324Z,59.31
2018-12-16T19:56:16.920Z,59.17
2018-12-16T19:58:49.999Z,59.39
2018-12-16T20:01:22.679Z,59.50
2018-12-16T20:04:01.105Z,59.25
2018-12-16T20:06:51.422Z,59.37
2018-12-16T20:09:24.035Z,59.41
2018-12-16T20:11:56.564Z,59.50
2018-12-16T20:14:29.174Z,59.26
2018-12-16T20:17:01.713Z,59.34
2018-12-16T20:19:34.414Z,59.12
2018-12-16T20:22:06.962Z,59.26
2018-12-16T20:24:39.615Z,59.33
2018-12-16T20:27:12.203Z,59.30
2018-12-16T20:29:45.152Z,59.56
2018-12-16T20:32:17.699Z,59.63
2018-12-16T20:34:50.403Z,59.52
2018-12-16T20:37:22.949Z,59.45
2018-12-16T20:39:55.796Z,59.60
2018-12-16T20:42:28.405Z,59.47
2018-12-16T20:45:01.251Z,59.62
2018-12-16T20:47:33.823Z,59.46
2018-12-16T20:50:07.072Z,59.55
2018-12-16T20:52:39.610Z,59.53
2018-12-16T20:55:13.168Z,59.26
2018-12-16T20:57:45.707Z,59.25
2018-12-16T21:00:18.309Z,59.47
2018-12-16T21:02:50.955Z,59.38
2018-12-16T21:05:23.568Z,59.63
2018-12-16T21:07:56.128Z,59.38
2018-12-16T21:10:29.019Z,59.44
2018-12-16T21:13:07.140Z,59.55
2018-12-16T21:15:45.250Z,59.63
2018-12-16T21:18:23.825Z,59.53
2018-12-16T21:20:56.404Z,59.60
2018-12-16T21:23:28.974Z,59.55
2018-12-16T21:26:01.659Z,59.67
2018-12-16T21:28:34.268Z,59.61
2018-12-16T21:31:07.055Z,59.45
2018-12-16T21:33:39.653Z,59.50
2018-12-16T21:36:13.266Z,59.41
2018-12-16T21:38:45.838Z,59.58
2018-12-16T21:41:18.563Z,59.52
2018-12-16T21:43:51.128Z,59.57
2018-12-16T21:46:23.731Z,59.68
2018-12-16T21:48:56.323Z,59.44
2018-12-16T21:51:29.036Z,59.44
2018-12-16T21:54:01.605Z,59.66
2018-12-16T21:56:34.199Z,59.41
2018-12-16T21:59:06.820Z,59.70
2018-12-16T22:01:39.436Z,59.55
2018-12-16T22:04:12.043Z,59.48
2018-12-16T22:06:44.745Z,59.48
2018-12-16T22:09:17.345Z,59.96
2018-12-16T22:11:50.239Z,59.74
2018-12-16T22:14:22.912Z,59.67
2018-12-16T22:16:55.629Z,59.49
2018-12-16T22:19:28.216Z,59.63
2018-12-16T22:22:00.942Z,59.70
2018-12-16T22:24:33.561Z,59.87
2018-12-16T22:27:06.218Z,59.94
2018-12-16T22:29:38.840Z,59.56
2018-12-16T22:32:11.442Z,59.63
2018-12-16T22:34:44.025Z,59.93
2018-12-16T22:37:16.704Z,59.96
2018-12-16T22:39:49.305Z,59.68
2018-12-16T22:42:22.078Z,59.56
2018-12-16T22:44:54.671Z,59.66
2018-12-16T22:47:27.346Z,59.75
2018-12-16T22:49:59.958Z,59.60
2018-12-16T22:52:32.604Z,59.69
2018-12-16T22:55:05.641Z,59.76
2018-12-16T22:57:38.250Z,59.89
2018-12-16T23:00:13.167Z,59.85
2018-12-16T23:02:45.857Z,60.10
2018-12-16T23:05:18.470Z,60.05
2018-12-16T23:07:51.175Z,60.18
2018-12-16T23:10:23.740Z,60.07
2018-12-16T23:12:56.458Z,60.18
2018-12-16T23:15:29.047Z,60.36
2018-12-16T23:18:01.811Z,60.06
2018-12-16T23:20:34.391Z,60.34
2018-12-16T23:23:06.990Z,60.45
2018-12-16T23:25:39.577Z,60.51
2018-12-16T23:28:12.389Z,60.42
2018-12-16T23:30:44.977Z,60.31
2018-12-16T23:33:17.611Z,60.42
2018-12-16T23:35:50.225Z,60.59
2018-12-16T23:38:22.927Z,60.55
2018-12-16T23:40:55.858Z,60.33
2018-12-16T23:43:28.609Z,60.47
2018-12-16T23:46:01.171Z,60.44
2018-12-16T23:48:33.785Z,60.18
2018-12-16T23:51:06.360Z,60.33
2018-12-16T23:53:38.957Z,60.46
2018-12-16T23:56:11.515Z,60.37
2018-12-16T23:58:44.241Z,60.63
